sensor_id;sensor_type;location;lat;lon;timestamp;temperature;humidity
23156;DHT22;11746;50.876;4.246;2023-12-04T00:01:25;3.30;99.90
23156;DHT22;11746;50.876;4.246;2023-12-04T00:03:51;3.30;99.90
23156;DHT22;11746;50.876;4.246;2023-12-04T00:06:21;3.30;99.90
23156;DHT22;11746;50.876;4.246;2023-12-04T00:08:46;3.30;99.90
23156;DHT22;11746;50.876;4.246;2023-12-04T00:11:12;3.40;99.90
23156;DHT22;11746;50.876;4.246;2023-12-04T00:13:37;3.60;99.90
23156;DHT22;11746;50.876;4.246;2023-12-04T00:16:03;3.50;99.90
23156;DHT22;11746;50.876;4.246;2023-12-04T00:18:29;3.40;99.90
23156;DHT22;11746;50.876;4.246;2023-12-04T00:20:55;3.40;99.90
23156;DHT22;11746;50.876;4.246;2023-12-04T00:23:21;3.50;99.90
23156;DHT22;11746;50.876;4.246;2023-12-04T00:25:49;3.40;99.90
23156;DHT22;11746;50.876;4.246;2023-12-04T00:28:15;3.30;99.90
23156;DHT22;11746;50.876;4.246;2023-12-04T00:30:41;3.30;99.90
23156;DHT22;11746;50.876;4.246;2023-12-04T00:33:07;3.30;99.90
23156;DHT22;11746;50.876;4.246;2023-12-04T00:35:32;3.40;99.90
23156;DHT22;11746;50.876;4.246;2023-12-04T00:38:00;3.50;99.90
23156;DHT22;11746;50.876;4.246;2023-12-04T00:40:28;3.40;99.90
23156;DHT22;11746;50.876;4.246;2023-12-04T00:42:56;3.40;99.90
23156;DHT22;11746;50.876;4.246;2023-12-04T00:45:22;3.40;99.90
23156;DHT22;11746;50.876;4.246;2023-12-04T00:47:47;3.50;99.90
23156;DHT22;11746;50.876;4.246;2023-12-04T00:50:13;3.40;99.90
23156;DHT22;11746;50.876;4.246;2023-12-04T00:52:41;3.40;99.90
23156;DHT22;11746;50.876;4.246;2023-12-04T00:55:06;3.40;99.90
23156;DHT22;11746;50.876;4.246;2023-12-04T00:57:35;3.40;99.90
23156;DHT22;11746;50.876;4.246;2023-12-04T01:00:00;3.40;99.90
23156;DHT22;11746;50.876;4.246;2023-12-04T01:02:26;3.50;99.90
23156;DHT22;11746;50.876;4.246;2023-12-04T01:04:52;3.50;99.90
23156;DHT22;11746;50.876;4.246;2023-12-04T01:07:17;3.60;99.90
23156;DHT22;11746;50.876;4.246;2023-12-04T01:09:43;3.60;99.90
23156;DHT22;11746;50.876;4.246;2023-12-04T01:12:08;3.60;99.90
23156;DHT22;11746;50.876;4.246;2023-12-04T01:14:36;3.60;99.90
23156;DHT22;11746;50.876;4.246;2023-12-04T01:17:05;3.60;99.90
23156;DHT22;11746;50.876;4.246;2023-12-04T01:19:33;3.60;99.90
23156;DHT22;11746;50.876;4.246;2023-12-04T01:22:04;3.70;99.90
23156;DHT22;11746;50.876;4.246;2023-12-04T01:24:35;3.70;99.90
23156;DHT22;11746;50.876;4.246;2023-12-04T01:27:03;3.70;99.90
23156;DHT22;11746;50.876;4.246;2023-12-04T01:29:30;3.60;99.90
23156;DHT22;11746;50.876;4.246;2023-12-04T01:31:57;3.60;99.90
23156;DHT22;11746;50.876;4.246;2023-12-04T01:34:23;3.60;99.90
23156;DHT22;11746;50.876;4.246;2023-12-04T01:36:51;3.60;99.90
23156;DHT22;11746;50.876;4.246;2023-12-04T01:39:19;3.70;99.90
23156;DHT22;11746;50.876;4.246;2023-12-04T01:41:49;3.70;99.90
23156;DHT22;11746;50.876;4.246;2023-12-04T01:44:17;3.70;99.90
23156;DHT22;11746;50.876;4.246;2023-12-04T01:46:43;3.70;99.90
23156;DHT22;11746;50.876;4.246;2023-12-04T01:49:09;3.80;99.90
23156;DHT22;11746;50.876;4.246;2023-12-04T01:51:35;3.80;99.90
23156;DHT22;11746;50.876;4.246;2023-12-04T01:54:03;3.90;99.90
23156;DHT22;11746;50.876;4.246;2023-12-04T01:56:30;3.80;99.90
23156;DHT22;11746;50.876;4.246;2023-12-04T01:58:56;3.80;99.90
23156;DHT22;11746;50.876;4.246;2023-12-04T02:01:22;3.70;99.90
23156;DHT22;11746;50.876;4.246;2023-12-04T02:03:51;3.70;99.90
23156;DHT22;11746;50.876;4.246;2023-12-04T02:06:17;3.80;99.90
23156;DHT22;11746;50.876;4.246;2023-12-04T02:08:47;3.80;99.90
23156;DHT22;11746;50.876;4.246;2023-12-04T02:11:17;3.80;99.90
23156;DHT22;11746;50.876;4.246;2023-12-04T02:13:43;3.80;99.90
23156;DHT22;11746;50.876;4.246;2023-12-04T02:16:10;3.80;99.90
23156;DHT22;11746;50.876;4.246;2023-12-04T02:18:37;3.80;99.90
23156;DHT22;11746;50.876;4.246;2023-12-04T02:21:08;3.70;99.90
23156;DHT22;11746;50.876;4.246;2023-12-04T02:23:36;3.70;99.90
23156;DHT22;11746;50.876;4.246;2023-12-04T02:26:09;3.70;99.90
23156;DHT22;11746;50.876;4.246;2023-12-04T02:28:36;3.70;99.90
23156;DHT22;11746;50.876;4.246;2023-12-04T02:31:04;3.80;99.90
23156;DHT22;11746;50.876;4.246;2023-12-04T02:33:31;3.80;99.90
23156;DHT22;11746;50.876;4.246;2023-12-04T02:36:01;3.80;99.90
23156;DHT22;11746;50.876;4.246;2023-12-04T02:38:30;3.80;99.90
23156;DHT22;11746;50.876;4.246;2023-12-04T02:40:58;3.70;99.90
23156;DHT22;11746;50.876;4.246;2023-12-04T02:43:24;3.70;99.90
23156;DHT22;11746;50.876;4.246;2023-12-04T02:45:50;3.70;99.90
23156;DHT22;11746;50.876;4.246;2023-12-04T02:48:15;3.80;99.90
23156;DHT22;11746;50.876;4.246;2023-12-04T02:50:41;3.80;99.90
23156;DHT22;11746;50.876;4.246;2023-12-04T02:53:09;3.80;99.90
23156;DHT22;11746;50.876;4.246;2023-12-04T02:55:34;3.80;99.90
23156;DHT22;11746;50.876;4.246;2023-12-04T02:58:02;3.80;99.90
23156;DHT22;11746;50.876;4.246;2023-12-04T03:00:28;3.80;99.90
23156;DHT22;11746;50.876;4.246;2023-12-04T03:02:56;3.80;99.90
23156;DHT22;11746;50.876;4.246;2023-12-04T03:05:23;3.80;99.90
23156;DHT22;11746;50.876;4.246;2023-12-04T03:07:49;3.80;99.90
23156;DHT22;11746;50.876;4.246;2023-12-04T03:10:17;3.80;99.90
23156;DHT22;11746;50.876;4.246;2023-12-04T03:12:42;3.80;99.90
23156;DHT22;11746;50.876;4.246;2023-12-04T03:15:08;3.70;99.90
23156;DHT22;11746;50.876;4.246;2023-12-04T03:17:35;3.70;99.90
23156;DHT22;11746;50.876;4.246;2023-12-04T03:20:03;3.70;99.90
23156;DHT22;11746;50.876;4.246;2023-12-04T03:22:32;3.80;99.90
23156;DHT22;11746;50.876;4.246;2023-12-04T03:24:58;3.80;99.90
23156;DHT22;11746;50.876;4.246;2023-12-04T03:27:30;3.80;99.90
23156;DHT22;11746;50.876;4.246;2023-12-04T03:29:58;3.70;99.90
23156;DHT22;11746;50.876;4.246;2023-12-04T03:32:26;3.70;99.90
23156;DHT22;11746;50.876;4.246;2023-12-04T03:34:54;3.80;99.90
23156;DHT22;11746;50.876;4.246;2023-12-04T03:37:22;3.70;99.90
23156;DHT22;11746;50.876;4.246;2023-12-04T03:39:47;3.70;99.90
23156;DHT22;11746;50.876;4.246;2023-12-04T03:42:13;3.80;99.90
23156;DHT22;11746;50.876;4.246;2023-12-04T03:44:38;3.80;99.90
23156;DHT22;11746;50.876;4.246;2023-12-04T03:47:04;3.80;99.90
23156;DHT22;11746;50.876;4.246;2023-12-04T03:49:29;3.80;99.90
23156;DHT22;11746;50.876;4.246;2023-12-04T03:51:55;3.80;99.90
23156;DHT22;11746;50.876;4.246;2023-12-04T03:54:21;3.90;99.90
23156;DHT22;11746;50.876;4.246;2023-12-04T03:56:48;3.90;99.90
23156;DHT22;11746;50.876;4.246;2023-12-04T03:59:14;3.90;99.90
23156;DHT22;11746;50.876;4.246;2023-12-04T04:01:39;3.80;99.90
23156;DHT22;11746;50.876;4.246;2023-12-04T04:04:05;3.90;99.90
23156;DHT22;11746;50.876;4.246;2023-12-04T04:06:31;3.80;99.90
23156;DHT22;11746;50.876;4.246;2023-12-04T04:08:56;3.70;99.90
23156;DHT22;11746;50.876;4.246;2023-12-04T04:11:24;3.80;99.90
23156;DHT22;11746;50.876;4.246;2023-12-04T04:13:52;3.90;99.90
23156;DHT22;11746;50.876;4.246;2023-12-04T04:16:17;3.90;99.90
23156;DHT22;11746;50.876;4.246;2023-12-04T04:18:43;3.80;99.90
23156;DHT22;11746;50.876;4.246;2023-12-04T04:21:11;3.80;99.90
23156;DHT22;11746;50.876;4.246;2023-12-04T04:23:37;3.80;99.90
23156;DHT22;11746;50.876;4.246;2023-12-04T04:26:02;3.90;99.90
23156;DHT22;11746;50.876;4.246;2023-12-04T04:28:28;3.90;99.90
23156;DHT22;11746;50.876;4.246;2023-12-04T04:30:54;3.90;99.90
23156;DHT22;11746;50.876;4.246;2023-12-04T04:33:19;3.90;99.90
23156;DHT22;11746;50.876;4.246;2023-12-04T04:35:47;3.90;99.90
23156;DHT22;11746;50.876;4.246;2023-12-04T04:38:13;3.80;99.90
23156;DHT22;11746;50.876;4.246;2023-12-04T04:40:40;3.90;99.90
23156;DHT22;11746;50.876;4.246;2023-12-04T04:43:11;3.90;99.90
23156;DHT22;11746;50.876;4.246;2023-12-04T04:45:41;3.80;99.90
23156;DHT22;11746;50.876;4.246;2023-12-04T04:48:06;3.80;99.90
23156;DHT22;11746;50.876;4.246;2023-12-04T04:50:34;4.00;99.90
23156;DHT22;11746;50.876;4.246;2023-12-04T04:53:00;4.00;99.90
23156;DHT22;11746;50.876;4.246;2023-12-04T04:55:30;3.90;99.90
23156;DHT22;11746;50.876;4.246;2023-12-04T04:57:57;4.00;99.90
23156;DHT22;11746;50.876;4.246;2023-12-04T05:00:22;3.90;99.90
23156;DHT22;11746;50.876;4.246;2023-12-04T05:02:48;4.00;99.90
23156;DHT22;11746;50.876;4.246;2023-12-04T05:05:14;4.00;99.90
23156;DHT22;11746;50.876;4.246;2023-12-04T05:07:39;4.00;99.90
23156;DHT22;11746;50.876;4.246;2023-12-04T05:10:08;3.90;99.90
23156;DHT22;11746;50.876;4.246;2023-12-04T05:12:39;3.80;99.90
23156;DHT22;11746;50.876;4.246;2023-12-04T05:15:04;3.80;99.90
23156;DHT22;11746;50.876;4.246;2023-12-04T05:17:30;3.90;99.90
23156;DHT22;11746;50.876;4.246;2023-12-04T05:19:56;3.90;99.90
23156;DHT22;11746;50.876;4.246;2023-12-04T05:22:26;3.90;99.90
23156;DHT22;11746;50.876;4.246;2023-12-04T05:24:52;4.00;99.90
23156;DHT22;11746;50.876;4.246;2023-12-04T05:27:17;4.00;99.90
23156;DHT22;11746;50.876;4.246;2023-12-04T05:29:45;3.90;99.90
23156;DHT22;11746;50.876;4.246;2023-12-04T05:32:12;3.90;99.90
23156;DHT22;11746;50.876;4.246;2023-12-04T05:34:40;4.00;99.90
23156;DHT22;11746;50.876;4.246;2023-12-04T05:37:06;3.90;99.90
23156;DHT22;11746;50.876;4.246;2023-12-04T05:39:32;4.00;99.90
23156;DHT22;11746;50.876;4.246;2023-12-04T05:41:57;4.00;99.90
23156;DHT22;11746;50.876;4.246;2023-12-04T05:44:25;4.00;99.90
23156;DHT22;11746;50.876;4.246;2023-12-04T05:46:51;4.00;99.90
23156;DHT22;11746;50.876;4.246;2023-12-04T05:49:17;4.00;99.90
23156;DHT22;11746;50.876;4.246;2023-12-04T05:51:43;4.10;99.90
23156;DHT22;11746;50.876;4.246;2023-12-04T05:54:11;4.10;99.90
23156;DHT22;11746;50.876;4.246;2023-12-04T05:56:36;4.00;99.90
23156;DHT22;11746;50.876;4.246;2023-12-04T05:59:04;4.00;99.90
23156;DHT22;11746;50.876;4.246;2023-12-04T06:01:30;4.00;99.90
23156;DHT22;11746;50.876;4.246;2023-12-04T06:03:55;4.00;99.90
23156;DHT22;11746;50.876;4.246;2023-12-04T06:06:23;4.10;99.90
23156;DHT22;11746;50.876;4.246;2023-12-04T06:08:51;4.20;99.90
23156;DHT22;11746;50.876;4.246;2023-12-04T06:11:17;4.20;99.90
23156;DHT22;11746;50.876;4.246;2023-12-04T06:13:42;4.10;99.90
23156;DHT22;11746;50.876;4.246;2023-12-04T06:16:08;4.10;99.90
23156;DHT22;11746;50.876;4.246;2023-12-04T06:18:34;4.10;99.90
23156;DHT22;11746;50.876;4.246;2023-12-04T06:21:04;4.20;99.90
23156;DHT22;11746;50.876;4.246;2023-12-04T06:23:31;4.20;99.90
23156;DHT22;11746;50.876;4.246;2023-12-04T06:25:57;4.30;99.90
23156;DHT22;11746;50.876;4.246;2023-12-04T06:28:22;4.30;99.90
23156;DHT22;11746;50.876;4.246;2023-12-04T06:30:48;4.30;99.90
23156;DHT22;11746;50.876;4.246;2023-12-04T06:33:14;4.20;99.90
23156;DHT22;11746;50.876;4.246;2023-12-04T06:35:41;4.20;99.90
23156;DHT22;11746;50.876;4.246;2023-12-04T06:38:10;4.20;99.90
23156;DHT22;11746;50.876;4.246;2023-12-04T06:40:43;4.10;99.90
23156;DHT22;11746;50.876;4.246;2023-12-04T06:43:09;4.20;99.90
23156;DHT22;11746;50.876;4.246;2023-12-04T06:45:35;4.10;99.90
23156;DHT22;11746;50.876;4.246;2023-12-04T06:48:01;4.10;99.90
23156;DHT22;11746;50.876;4.246;2023-12-04T06:50:30;4.10;99.90
23156;DHT22;11746;50.876;4.246;2023-12-04T06:52:55;4.20;99.90
23156;DHT22;11746;50.876;4.246;2023-12-04T06:55:23;4.10;99.90
23156;DHT22;11746;50.876;4.246;2023-12-04T06:57:49;4.10;99.90
23156;DHT22;11746;50.876;4.246;2023-12-04T07:00:15;4.00;99.90
23156;DHT22;11746;50.876;4.246;2023-12-04T07:02:44;4.20;99.90
23156;DHT22;11746;50.876;4.246;2023-12-04T07:05:10;4.20;99.90
23156;DHT22;11746;50.876;4.246;2023-12-04T07:07:40;4.10;99.90
23156;DHT22;11746;50.876;4.246;2023-12-04T07:10:05;4.20;99.90
23156;DHT22;11746;50.876;4.246;2023-12-04T07:12:31;4.20;99.90
23156;DHT22;11746;50.876;4.246;2023-12-04T07:14:59;4.10;99.90
23156;DHT22;11746;50.876;4.246;2023-12-04T07:17:28;4.10;99.90
23156;DHT22;11746;50.876;4.246;2023-12-04T07:19:53;4.10;99.90
23156;DHT22;11746;50.876;4.246;2023-12-04T07:22:21;4.10;99.90
23156;DHT22;11746;50.876;4.246;2023-12-04T07:24:46;4.00;99.90
23156;DHT22;11746;50.876;4.246;2023-12-04T07:27:12;4.10;99.90
23156;DHT22;11746;50.876;4.246;2023-12-04T07:29:38;4.10;99.90
23156;DHT22;11746;50.876;4.246;2023-12-04T07:32:06;4.10;99.90
23156;DHT22;11746;50.876;4.246;2023-12-04T07:34:32;4.20;99.90
23156;DHT22;11746;50.876;4.246;2023-12-04T07:36:57;4.20;99.90
23156;DHT22;11746;50.876;4.246;2023-12-04T07:39:23;4.20;99.90
23156;DHT22;11746;50.876;4.246;2023-12-04T07:41:51;4.10;99.90
23156;DHT22;11746;50.876;4.246;2023-12-04T07:44:19;4.10;99.90
23156;DHT22;11746;50.876;4.246;2023-12-04T07:46:46;4.10;99.90
23156;DHT22;11746;50.876;4.246;2023-12-04T07:49:15;4.00;99.90
23156;DHT22;11746;50.876;4.246;2023-12-04T07:51:40;4.00;99.90
23156;DHT22;11746;50.876;4.246;2023-12-04T07:54:08;4.10;99.90
23156;DHT22;11746;50.876;4.246;2023-12-04T07:56:34;4.10;99.90
23156;DHT22;11746;50.876;4.246;2023-12-04T07:59:02;4.10;99.90
23156;DHT22;11746;50.876;4.246;2023-12-04T08:01:29;4.20;99.90
23156;DHT22;11746;50.876;4.246;2023-12-04T08:03:55;4.10;99.90
23156;DHT22;11746;50.876;4.246;2023-12-04T08:06:23;4.10;99.90
23156;DHT22;11746;50.876;4.246;2023-12-04T08:08:49;4.00;99.90
23156;DHT22;11746;50.876;4.246;2023-12-04T08:11:15;3.90;99.90
23156;DHT22;11746;50.876;4.246;2023-12-04T08:13:43;4.00;99.90
23156;DHT22;11746;50.876;4.246;2023-12-04T08:16:17;4.00;99.90
23156;DHT22;11746;50.876;4.246;2023-12-04T08:18:45;4.10;99.90
23156;DHT22;11746;50.876;4.246;2023-12-04T08:21:11;4.00;99.90
23156;DHT22;11746;50.876;4.246;2023-12-04T08:23:37;4.00;99.90
23156;DHT22;11746;50.876;4.246;2023-12-04T08:26:03;3.90;99.90
23156;DHT22;11746;50.876;4.246;2023-12-04T08:28:32;3.90;99.90
23156;DHT22;11746;50.876;4.246;2023-12-04T08:30:58;4.00;99.90
23156;DHT22;11746;50.876;4.246;2023-12-04T08:33:23;4.00;99.90
23156;DHT22;11746;50.876;4.246;2023-12-04T08:35:49;4.10;99.90
23156;DHT22;11746;50.876;4.246;2023-12-04T08:38:16;4.10;99.90
23156;DHT22;11746;50.876;4.246;2023-12-04T08:40:41;4.10;99.90
23156;DHT22;11746;50.876;4.246;2023-12-04T08:43:08;4.00;99.90
23156;DHT22;11746;50.876;4.246;2023-12-04T08:45:36;4.00;99.90
23156;DHT22;11746;50.876;4.246;2023-12-04T08:48:01;4.10;99.90
23156;DHT22;11746;50.876;4.246;2023-12-04T08:50:29;4.00;99.90
23156;DHT22;11746;50.876;4.246;2023-12-04T08:52:55;4.00;99.90
23156;DHT22;11746;50.876;4.246;2023-12-04T08:55:23;3.90;99.90
23156;DHT22;11746;50.876;4.246;2023-12-04T08:57:48;4.00;99.90
23156;DHT22;11746;50.876;4.246;2023-12-04T09:00:17;4.00;99.90
23156;DHT22;11746;50.876;4.246;2023-12-04T09:02:43;4.00;99.90
23156;DHT22;11746;50.876;4.246;2023-12-04T09:05:11;4.00;99.90
23156;DHT22;11746;50.876;4.246;2023-12-04T09:07:41;4.10;99.90
23156;DHT22;11746;50.876;4.246;2023-12-04T09:10:09;4.10;99.90
23156;DHT22;11746;50.876;4.246;2023-12-04T09:12:35;4.10;99.90
23156;DHT22;11746;50.876;4.246;2023-12-04T09:15:02;4.00;99.90
23156;DHT22;11746;50.876;4.246;2023-12-04T09:17:30;4.00;99.90
23156;DHT22;11746;50.876;4.246;2023-12-04T09:19:56;4.00;99.90
23156;DHT22;11746;50.876;4.246;2023-12-04T09:22:24;4.10;99.90
23156;DHT22;11746;50.876;4.246;2023-12-04T09:24:50;4.10;99.90
23156;DHT22;11746;50.876;4.246;2023-12-04T09:27:15;4.10;99.90
23156;DHT22;11746;50.876;4.246;2023-12-04T09:29:42;4.20;99.90
23156;DHT22;11746;50.876;4.246;2023-12-04T09:32:09;4.20;99.90
23156;DHT22;11746;50.876;4.246;2023-12-04T09:34:35;4.20;99.90
23156;DHT22;11746;50.876;4.246;2023-12-04T09:37:05;4.10;99.90
23156;DHT22;11746;50.876;4.246;2023-12-04T09:39:33;4.00;99.90
23156;DHT22;11746;50.876;4.246;2023-12-04T09:41:59;4.00;99.90
23156;DHT22;11746;50.876;4.246;2023-12-04T09:44:28;4.00;99.90
23156;DHT22;11746;50.876;4.246;2023-12-04T09:46:59;4.00;99.90
23156;DHT22;11746;50.876;4.246;2023-12-04T09:49:26;4.00;99.90
23156;DHT22;11746;50.876;4.246;2023-12-04T09:51:53;3.90;99.90
23156;DHT22;11746;50.876;4.246;2023-12-04T09:54:19;4.00;99.90
23156;DHT22;11746;50.876;4.246;2023-12-04T09:56:45;3.80;99.90
23156;DHT22;11746;50.876;4.246;2023-12-04T09:59:13;3.80;99.90
23156;DHT22;11746;50.876;4.246;2023-12-04T10:01:41;3.70;99.90
23156;DHT22;11746;50.876;4.246;2023-12-04T10:04:10;3.60;99.90
23156;DHT22;11746;50.876;4.246;2023-12-04T10:06:40;3.50;99.90
23156;DHT22;11746;50.876;4.246;2023-12-04T10:09:08;3.50;99.90
23156;DHT22;11746;50.876;4.246;2023-12-04T10:11:42;3.40;99.90
23156;DHT22;11746;50.876;4.246;2023-12-04T10:14:18;3.50;99.90
23156;DHT22;11746;50.876;4.246;2023-12-04T10:16:45;3.60;99.90
23156;DHT22;11746;50.876;4.246;2023-12-04T10:19:29;3.60;99.90
23156;DHT22;11746;50.876;4.246;2023-12-04T10:21:56;3.50;99.90
23156;DHT22;11746;50.876;4.246;2023-12-04T10:24:33;3.40;99.90
23156;DHT22;11746;50.876;4.246;2023-12-04T10:27:01;3.40;99.90
23156;DHT22;11746;50.876;4.246;2023-12-04T10:29:41;3.50;99.90
23156;DHT22;11746;50.876;4.246;2023-12-04T10:32:09;3.50;99.90
23156;DHT22;11746;50.876;4.246;2023-12-04T10:34:36;3.70;99.90
23156;DHT22;11746;50.876;4.246;2023-12-04T10:37:03;3.70;99.90
23156;DHT22;11746;50.876;4.246;2023-12-04T10:39:30;3.90;99.90
23156;DHT22;11746;50.876;4.246;2023-12-04T10:42:01;3.90;99.90
23156;DHT22;11746;50.876;4.246;2023-12-04T10:44:28;3.90;99.90
23156;DHT22;11746;50.876;4.246;2023-12-04T10:46:59;3.90;99.90
23156;DHT22;11746;50.876;4.246;2023-12-04T10:49:27;4.10;99.90
23156;DHT22;11746;50.876;4.246;2023-12-04T10:51:55;4.10;99.90
23156;DHT22;11746;50.876;4.246;2023-12-04T10:54:25;4.10;99.90
23156;DHT22;11746;50.876;4.246;2023-12-04T10:56:52;4.10;99.90
23156;DHT22;11746;50.876;4.246;2023-12-04T10:59:26;4.20;99.90
23156;DHT22;11746;50.876;4.246;2023-12-04T11:01:54;4.10;99.90
23156;DHT22;11746;50.876;4.246;2023-12-04T11:04:23;4.10;99.90
23156;DHT22;11746;50.876;4.246;2023-12-04T11:06:53;4.10;99.90
23156;DHT22;11746;50.876;4.246;2023-12-04T11:09:21;4.10;99.90
23156;DHT22;11746;50.876;4.246;2023-12-04T11:11:51;4.10;99.90
23156;DHT22;11746;50.876;4.246;2023-12-04T11:14:22;4.10;99.90
23156;DHT22;11746;50.876;4.246;2023-12-04T11:17:01;4.20;99.90
23156;DHT22;11746;50.876;4.246;2023-12-04T11:19:41;4.10;99.90
23156;DHT22;11746;50.876;4.246;2023-12-04T11:22:11;4.20;99.90
23156;DHT22;11746;50.876;4.246;2023-12-04T11:24:42;4.30;99.90
23156;DHT22;11746;50.876;4.246;2023-12-04T11:27:08;4.30;99.90
23156;DHT22;11746;50.876;4.246;2023-12-04T11:29:34;4.30;99.90
23156;DHT22;11746;50.876;4.246;2023-12-04T11:32:09;4.20;99.90
23156;DHT22;11746;50.876;4.246;2023-12-04T11:34:47;4.10;99.90
23156;DHT22;11746;50.876;4.246;2023-12-04T11:37:13;4.20;99.90
23156;DHT22;11746;50.876;4.246;2023-12-04T11:39:39;4.20;99.90
23156;DHT22;11746;50.876;4.246;2023-12-04T11:42:11;4.20;99.90
23156;DHT22;11746;50.876;4.246;2023-12-04T11:44:45;4.30;99.90
23156;DHT22;11746;50.876;4.246;2023-12-04T11:47:12;4.40;99.90
23156;DHT22;11746;50.876;4.246;2023-12-04T11:49:38;4.50;99.90
23156;DHT22;11746;50.876;4.246;2023-12-04T11:52:06;4.40;99.90
23156;DHT22;11746;50.876;4.246;2023-12-04T11:57:26;4.40;99.90
23156;DHT22;11746;50.876;4.246;2023-12-04T12:03:09;4.30;99.90
23156;DHT22;11746;50.876;4.246;2023-12-04T12:05:36;4.30;99.90
23156;DHT22;11746;50.876;4.246;2023-12-04T12:08:04;4.40;99.90
23156;DHT22;11746;50.876;4.246;2023-12-04T12:10:31;4.40;99.90
23156;DHT22;11746;50.876;4.246;2023-12-04T12:12:57;4.40;99.90
23156;DHT22;11746;50.876;4.246;2023-12-04T12:15:23;4.40;99.90
23156;DHT22;11746;50.876;4.246;2023-12-04T12:17:49;4.50;99.90
23156;DHT22;11746;50.876;4.246;2023-12-04T12:20:15;4.40;99.90
23156;DHT22;11746;50.876;4.246;2023-12-04T12:22:41;4.50;99.90
23156;DHT22;11746;50.876;4.246;2023-12-04T12:25:10;4.50;99.90
23156;DHT22;11746;50.876;4.246;2023-12-04T12:27:39;4.40;99.90
23156;DHT22;11746;50.876;4.246;2023-12-04T12:30:07;4.40;99.90
23156;DHT22;11746;50.876;4.246;2023-12-04T12:32:35;4.50;99.90
23156;DHT22;11746;50.876;4.246;2023-12-04T12:35:03;4.50;99.90
23156;DHT22;11746;50.876;4.246;2023-12-04T12:37:29;4.60;99.90
23156;DHT22;11746;50.876;4.246;2023-12-04T12:39:55;4.60;99.90
23156;DHT22;11746;50.876;4.246;2023-12-04T12:42:27;4.60;99.90
23156;DHT22;11746;50.876;4.246;2023-12-04T12:44:58;4.60;99.90
23156;DHT22;11746;50.876;4.246;2023-12-04T12:47:25;4.60;99.90
23156;DHT22;11746;50.876;4.246;2023-12-04T12:49:52;4.60;99.90
23156;DHT22;11746;50.876;4.246;2023-12-04T12:52:23;4.70;99.90
23156;DHT22;11746;50.876;4.246;2023-12-04T12:54:48;4.60;99.90
23156;DHT22;11746;50.876;4.246;2023-12-04T12:57:16;4.60;99.90
23156;DHT22;11746;50.876;4.246;2023-12-04T12:59:44;4.60;99.90
23156;DHT22;11746;50.876;4.246;2023-12-04T13:02:10;4.70;99.90
23156;DHT22;11746;50.876;4.246;2023-12-04T13:04:41;4.70;99.90
23156;DHT22;11746;50.876;4.246;2023-12-04T13:07:12;4.70;99.90
23156;DHT22;11746;50.876;4.246;2023-12-04T13:09:38;4.70;99.90
23156;DHT22;11746;50.876;4.246;2023-12-04T13:12:07;4.60;99.90
23156;DHT22;11746;50.876;4.246;2023-12-04T13:14:34;4.60;99.90
23156;DHT22;11746;50.876;4.246;2023-12-04T13:17:03;4.70;99.90
23156;DHT22;11746;50.876;4.246;2023-12-04T13:19:29;4.70;99.90
23156;DHT22;11746;50.876;4.246;2023-12-04T13:21:59;4.70;99.90
23156;DHT22;11746;50.876;4.246;2023-12-04T13:24:27;4.70;99.90
23156;DHT22;11746;50.876;4.246;2023-12-04T13:26:53;4.60;99.90
23156;DHT22;11746;50.876;4.246;2023-12-04T13:29:21;4.70;99.90
23156;DHT22;11746;50.876;4.246;2023-12-04T13:31:49;4.70;99.90
23156;DHT22;11746;50.876;4.246;2023-12-04T13:34:16;4.80;99.90
23156;DHT22;11746;50.876;4.246;2023-12-04T13:36:41;4.80;99.90
23156;DHT22;11746;50.876;4.246;2023-12-04T13:39:12;4.80;99.90
23156;DHT22;11746;50.876;4.246;2023-12-04T13:41:53;4.80;99.90
23156;DHT22;11746;50.876;4.246;2023-12-04T13:44:37;4.90;99.90
23156;DHT22;11746;50.876;4.246;2023-12-04T13:47:03;5.00;99.90
23156;DHT22;11746;50.876;4.246;2023-12-04T13:49:31;5.00;99.90
23156;DHT22;11746;50.876;4.246;2023-12-04T13:51:58;5.00;99.90
23156;DHT22;11746;50.876;4.246;2023-12-04T13:54:24;4.90;99.90
23156;DHT22;11746;50.876;4.246;2023-12-04T13:57:08;4.90;99.90
23156;DHT22;11746;50.876;4.246;2023-12-04T13:59:43;5.00;99.90
23156;DHT22;11746;50.876;4.246;2023-12-04T14:02:09;5.00;99.90
23156;DHT22;11746;50.876;4.246;2023-12-04T14:04:37;5.00;99.90
23156;DHT22;11746;50.876;4.246;2023-12-04T14:07:05;5.00;99.90
23156;DHT22;11746;50.876;4.246;2023-12-04T14:09:34;5.00;99.90
23156;DHT22;11746;50.876;4.246;2023-12-04T14:12:00;5.00;99.90
23156;DHT22;11746;50.876;4.246;2023-12-04T14:14:26;5.10;99.90
23156;DHT22;11746;50.876;4.246;2023-12-04T14:16:51;5.00;99.90
23156;DHT22;11746;50.876;4.246;2023-12-04T14:19:17;4.90;99.90
23156;DHT22;11746;50.876;4.246;2023-12-04T14:21:46;5.00;99.90
23156;DHT22;11746;50.876;4.246;2023-12-04T14:24:13;5.00;99.90
23156;DHT22;11746;50.876;4.246;2023-12-04T14:26:39;4.90;99.90
23156;DHT22;11746;50.876;4.246;2023-12-04T14:29:06;4.90;99.90
23156;DHT22;11746;50.876;4.246;2023-12-04T14:31:34;4.90;99.90
23156;DHT22;11746;50.876;4.246;2023-12-04T14:33:59;5.00;99.90
23156;DHT22;11746;50.876;4.246;2023-12-04T14:36:25;5.10;99.90
23156;DHT22;11746;50.876;4.246;2023-12-04T14:38:52;5.10;99.90
23156;DHT22;11746;50.876;4.246;2023-12-04T14:41:18;5.20;99.90
23156;DHT22;11746;50.876;4.246;2023-12-04T14:43:44;5.30;99.90
23156;DHT22;11746;50.876;4.246;2023-12-04T14:46:09;5.40;99.90
23156;DHT22;11746;50.876;4.246;2023-12-04T14:48:37;5.50;99.90
23156;DHT22;11746;50.876;4.246;2023-12-04T14:51:04;5.40;99.90
23156;DHT22;11746;50.876;4.246;2023-12-04T14:53:30;5.50;99.90
23156;DHT22;11746;50.876;4.246;2023-12-04T14:56:09;5.50;99.90
23156;DHT22;11746;50.876;4.246;2023-12-04T14:58:56;5.50;99.90
23156;DHT22;11746;50.876;4.246;2023-12-04T15:01:46;5.50;99.90
23156;DHT22;11746;50.876;4.246;2023-12-04T15:04:30;5.40;99.90
23156;DHT22;11746;50.876;4.246;2023-12-04T15:07:24;5.40;99.90
23156;DHT22;11746;50.876;4.246;2023-12-04T15:10:08;5.40;99.90
23156;DHT22;11746;50.876;4.246;2023-12-04T15:12:49;5.40;99.90
23156;DHT22;11746;50.876;4.246;2023-12-04T15:15:17;5.40;99.90
23156;DHT22;11746;50.876;4.246;2023-12-04T15:18:02;5.40;99.90
23156;DHT22;11746;50.876;4.246;2023-12-04T15:20:48;5.30;99.90
23156;DHT22;11746;50.876;4.246;2023-12-04T15:23:14;5.40;99.90
23156;DHT22;11746;50.876;4.246;2023-12-04T15:25:39;5.40;99.90
23156;DHT22;11746;50.876;4.246;2023-12-04T15:28:05;5.40;99.90
23156;DHT22;11746;50.876;4.246;2023-12-04T15:30:35;5.30;99.90
23156;DHT22;11746;50.876;4.246;2023-12-04T15:33:01;5.40;99.90
23156;DHT22;11746;50.876;4.246;2023-12-04T15:35:29;5.50;99.90
23156;DHT22;11746;50.876;4.246;2023-12-04T15:37:57;5.50;99.90
23156;DHT22;11746;50.876;4.246;2023-12-04T15:40:25;5.60;99.90
23156;DHT22;11746;50.876;4.246;2023-12-04T15:42:51;5.50;99.90
23156;DHT22;11746;50.876;4.246;2023-12-04T15:45:19;5.50;99.90
23156;DHT22;11746;50.876;4.246;2023-12-04T15:47:47;5.40;99.90
23156;DHT22;11746;50.876;4.246;2023-12-04T15:50:13;5.50;99.90
23156;DHT22;11746;50.876;4.246;2023-12-04T15:52:41;5.50;99.90
23156;DHT22;11746;50.876;4.246;2023-12-04T15:55:08;5.60;99.90